createdAt,value
2022-12-07T00:01:31.690Z,20.52
2022-12-07T00:05:13.445Z,18.48
2022-12-07T00:08:55.180Z,20.92
2022-12-07T00:12:36.944Z,20.63
2022-12-07T00:16:20.982Z,21.63
2022-12-07T00:20:02.954Z,19.67
2022-12-07T00:23:46.673Z,17.40
2022-12-07T00:27:28.672Z,20.05
2022-12-07T00:31:12.995Z,23.13
2022-12-07T00:34:54.726Z,20.98
2022-12-07T00:38:38.181Z,24.58
2022-12-07T00:42:19.975Z,18.25
2022-12-07T00:46:01.864Z,18.38
2022-12-07T00:49:43.666Z,15.93
2022-12-07T00:53:25.950Z,22.15
2022-12-07T00:57:10.607Z,19.45
2022-12-07T01:00:52.356Z,18.52
2022-12-07T01:04:35.698Z,20.83
2022-12-07T01:08:17.630Z,21.75
2022-12-07T01:11:59.435Z,23.65
2022-12-07T01:15:42.831Z,21.55
2022-12-07T01:19:24.585Z,20.90
2022-12-07T01:23:07.220Z,21.80
2022-12-07T01:26:50.998Z,21.15
2022-12-07T01:30:32.792Z,22.58
2022-12-07T01:34:14.536Z,25.58
2022-12-07T01:37:56.281Z,18.52
2022-12-07T01:41:41.464Z,20.00
2022-12-07T01:45:40.515Z,21.77
2022-12-07T01:49:47.697Z,19.52
2022-12-07T01:57:15.794Z,22.83
2022-12-07T02:00:57.542Z,19.67
2022-12-07T02:04:39.469Z,19.40
2022-12-07T02:08:21.487Z,22.10
2022-12-07T02:12:04.028Z,17.45
2022-12-07T02:16:06.744Z,20.05
2022-12-07T02:20:05.561Z,20.05
2022-12-07T02:24:30.194Z,18.25
2022-12-07T02:28:32.949Z,23.25
2022-12-07T02:32:20.835Z,22.13
2022-12-07T02:36:07.629Z,16.58
2022-12-07T02:39:59.228Z,20.30
2022-12-07T02:43:55.087Z,17.23
2022-12-07T02:47:37.972Z,17.92
2022-12-07T02:51:20.403Z,17.35
2022-12-07T02:55:02.697Z,20.02
2022-12-07T02:58:55.294Z,22.60
2022-12-07T03:02:59.672Z,22.42
2022-12-07T03:06:50.475Z,24.40
2022-12-07T03:11:12.116Z,22.27
2022-12-07T03:15:00.708Z,23.95
2022-12-07T03:18:54.980Z,26.42
2022-12-07T03:22:41.132Z,21.25
2022-12-07T03:26:27.829Z,22.58
2022-12-07T03:30:15.926Z,18.70
2022-12-07T03:34:07.646Z,18.63
2022-12-07T03:37:55.482Z,20.20
2022-12-07T03:41:44.818Z,21.80
2022-12-07T03:45:44.049Z,22.58
2022-12-07T03:49:46.463Z,24.40
2022-12-07T03:53:38.984Z,26.40
2022-12-07T03:57:23.506Z,25.05
2022-12-07T04:01:05.294Z,20.63
2022-12-07T04:04:47.305Z,25.08
2022-12-07T04:08:29.060Z,24.60
2022-12-07T04:12:10.827Z,22.30
2022-12-07T04:15:52.636Z,22.73
2022-12-07T04:19:35.250Z,23.15
2022-12-07T04:23:16.991Z,25.15
2022-12-07T04:26:58.839Z,17.73
2022-12-07T04:30:40.683Z,19.73
2022-12-07T04:34:22.552Z,21.83
2022-12-07T04:38:04.336Z,21.15
2022-12-07T04:41:46.047Z,25.35
2022-12-07T04:45:27.829Z,21.10
2022-12-07T04:49:10.388Z,19.60
2022-12-07T04:52:52.110Z,24.17
2022-12-07T04:56:36.093Z,21.95
2022-12-07T05:00:18.068Z,24.05
2022-12-07T05:04:00.261Z,20.95
2022-12-07T05:07:42.004Z,20.98
2022-12-07T05:11:38.919Z,23.55
2022-12-07T05:15:20.760Z,19.80
2022-12-07T05:19:02.521Z,22.08
2022-12-07T05:22:44.329Z,19.98
2022-12-07T05:26:26.189Z,19.58
2022-12-07T05:30:08.512Z,21.70
2022-12-07T05:33:50.413Z,18.83
2022-12-07T05:37:32.574Z,23.65
2022-12-07T05:41:35.251Z,20.80
2022-12-07T05:45:17.070Z,25.42
2022-12-07T05:48:58.909Z,19.27
2022-12-07T05:52:40.669Z,23.27
2022-12-07T05:56:22.507Z,21.88
2022-12-07T06:00:05.864Z,25.27
2022-12-07T06:03:47.782Z,20.25
2022-12-07T06:07:29.504Z,21.88
2022-12-07T06:11:29.734Z,20.35
2022-12-07T06:15:13.977Z,23.77
2022-12-07T06:18:55.837Z,24.13
2022-12-07T06:22:37.656Z,23.08
2022-12-07T06:26:19.403Z,18.83
2022-12-07T06:30:06.507Z,19.88
2022-12-07T06:33:48.260Z,19.50
2022-12-07T06:37:29.988Z,17.67
2022-12-07T06:41:11.703Z,22.92
2022-12-07T06:44:53.467Z,22.83
2022-12-07T06:48:35.212Z,21.60
2022-12-07T06:52:16.947Z,20.13
2022-12-07T06:55:58.700Z,23.13
2022-12-07T06:59:40.550Z,20.38
2022-12-07T07:03:22.407Z,22.73
2022-12-07T07:07:04.178Z,19.35
2022-12-07T07:10:45.964Z,22.00
2022-12-07T07:14:27.785Z,17.65
2022-12-07T07:18:09.579Z,22.50
2022-12-07T07:21:51.321Z,20.80
2022-12-07T07:25:33.263Z,21.00
2022-12-07T07:29:15.138Z,22.65
2022-12-07T07:33:04.170Z,21.42
2022-12-07T07:36:45.912Z,22.15
2022-12-07T07:40:30.195Z,19.58
2022-12-07T07:44:12.038Z,24.27
2022-12-07T07:47:54.115Z,23.42
2022-12-07T07:51:35.873Z,23.33
2022-12-07T07:55:18.506Z,23.73
2022-12-07T07:59:00.271Z,30.38
2022-12-07T08:02:44.039Z,21.17
2022-12-07T08:06:31.875Z,19.20
2022-12-07T08:10:14.715Z,22.10
2022-12-07T08:13:56.454Z,22.95
2022-12-07T08:17:38.194Z,20.13
2022-12-07T08:21:19.939Z,25.77
2022-12-07T08:25:01.693Z,22.88
2022-12-07T08:28:43.840Z,21.88
2022-12-07T08:32:25.581Z,25.15
2022-12-07T08:36:10.225Z,20.33
2022-12-07T08:39:51.982Z,20.33
2022-12-07T08:43:34.644Z,18.52
2022-12-07T08:47:16.434Z,24.77
2022-12-07T08:50:58.978Z,25.27
2022-12-07T08:54:42.061Z,18.83
2022-12-07T08:58:24.186Z,21.40
2022-12-07T09:02:07.176Z,25.58
2022-12-07T09:05:49.153Z,29.10
2022-12-07T09:09:31.109Z,23.60
2022-12-07T09:13:12.908Z,27.92
2022-12-07T09:16:54.737Z,29.25
2022-12-07T09:20:36.554Z,31.45
2022-12-07T09:24:18.270Z,31.92
2022-12-07T09:28:00.290Z,28.13
2022-12-07T09:31:42.130Z,35.13
2022-12-07T09:35:24.830Z,34.65
2022-12-07T09:39:06.764Z,28.90
2022-12-07T09:42:52.193Z,38.78
2022-12-07T09:46:39.632Z,35.88
2022-12-07T09:54:05.891Z,24.35
2022-12-07T09:57:47.970Z,27.80
2022-12-07T10:01:32.693Z,24.73
2022-12-07T10:05:49.436Z,25.27
2022-12-07T10:09:35.773Z,25.83
2022-12-07T10:13:42.321Z,22.25
2022-12-07T10:17:37.704Z,25.02
2022-12-07T10:21:21.801Z,29.30
2022-12-07T10:25:18.108Z,22.65
2022-12-07T10:29:02.728Z,21.63
2022-12-07T10:32:46.253Z,25.48
2022-12-07T10:36:39.070Z,20.60
2022-12-07T10:40:35.403Z,20.50
2022-12-07T10:44:24.097Z,18.38
2022-12-07T10:48:24.760Z,15.55
2022-12-07T10:52:06.718Z,18.98
2022-12-07T10:55:59.761Z,18.77
2022-12-07T10:59:56.314Z,19.42
2022-12-07T11:03:53.486Z,14.02
2022-12-07T11:08:14.300Z,11.48
2022-12-07T11:12:15.011Z,8.65
2022-12-07T11:16:24.764Z,10.45
2022-12-07T11:20:43.920Z,13.35
2022-12-07T11:24:40.308Z,9.75
2022-12-07T11:28:37.110Z,11.77
2022-12-07T11:32:40.638Z,9.07
2022-12-07T11:36:42.964Z,7.35
2022-12-07T11:40:38.069Z,8.38
2022-12-07T11:45:00.839Z,7.65
2022-12-07T11:48:54.432Z,11.48
2022-12-07T11:52:48.742Z,9.93
2022-12-07T11:56:37.715Z,12.07
2022-12-07T12:00:20.308Z,10.98
2022-12-07T12:04:11.120Z,12.82
2022-12-07T12:17:28.360Z,10.02
2022-12-07T12:21:19.485Z,8.75
2022-12-07T12:25:06.254Z,12.05
2022-12-07T12:29:20.049Z,9.82
2022-12-07T12:33:29.488Z,13.30
2022-12-07T12:37:34.081Z,9.65
2022-12-07T12:42:00.519Z,10.98
2022-12-07T12:45:42.310Z,14.77
2022-12-07T12:49:24.017Z,15.80
2022-12-07T12:53:27.770Z,10.00
2022-12-07T12:57:29.408Z,9.80
2022-12-07T13:01:40.071Z,10.70
2022-12-07T13:05:24.700Z,10.25
2022-12-07T13:09:24.065Z,13.75
2022-12-07T13:13:20.814Z,13.38
2022-12-07T13:17:03.187Z,12.43
2022-12-07T13:20:49.856Z,13.38
2022-12-07T13:24:33.377Z,10.02
2022-12-07T13:28:21.629Z,16.70
2022-12-07T13:32:03.386Z,12.02
2022-12-07T13:35:45.126Z,10.18
2022-12-07T13:39:28.702Z,10.20
2022-12-07T13:43:16.226Z,10.18
2022-12-07T13:47:16.384Z,10.95
2022-12-07T13:50:59.760Z,9.50
2022-12-07T13:55:05.866Z,9.65
2022-12-07T13:58:48.037Z,10.57
2022-12-07T14:02:38.814Z,10.05
2022-12-07T14:06:29.383Z,5.00
2022-12-07T14:10:27.015Z,7.25
2022-12-07T14:14:19.194Z,8.90
2022-12-07T14:18:05.435Z,8.05
2022-12-07T14:21:47.158Z,8.82
2022-12-07T14:25:29.389Z,8.43
2022-12-07T14:29:33.669Z,11.73
2022-12-07T14:33:15.456Z,12.15
2022-12-07T14:36:57.183Z,11.50
2022-12-07T14:40:39.821Z,10.90
2022-12-07T14:44:26.895Z,9.52
2022-12-07T14:56:26.627Z,6.80
2022-12-07T15:00:09.963Z,10.93
2022-12-07T15:03:51.788Z,8.95
2022-12-07T15:07:33.554Z,8.23
2022-12-07T15:11:17.605Z,9.30
2022-12-07T15:14:59.337Z,6.88
2022-12-07T15:18:45.401Z,10.25
2022-12-07T15:22:40.371Z,7.65
2022-12-07T15:26:22.166Z,13.43
2022-12-07T15:30:04.802Z,10.15
2022-12-07T15:33:46.549Z,7.60
2022-12-07T15:37:28.302Z,6.45
2022-12-07T15:41:10.044Z,9.80
2022-12-07T15:45:07.814Z,5.75
2022-12-07T15:48:49.742Z,11.63
2022-12-07T15:52:31.807Z,10.85
2022-12-07T15:56:13.544Z,11.05
2022-12-07T15:59:55.339Z,10.02
2022-12-07T16:03:37.208Z,8.60
2022-12-07T16:07:19.522Z,9.38
2022-12-07T16:11:05.152Z,10.07
2022-12-07T16:14:46.884Z,12.20
2022-12-07T16:18:28.590Z,9.43
2022-12-07T16:22:10.337Z,8.38
2022-12-07T16:25:52.120Z,7.93
2022-12-07T16:29:33.927Z,7.38
2022-12-07T16:33:15.690Z,7.43
2022-12-07T16:37:05.817Z,13.57
2022-12-07T16:40:48.463Z,14.57
2022-12-07T16:44:31.605Z,30.75
2022-12-07T16:48:14.429Z,24.92
2022-12-07T16:52:18.749Z,29.60
2022-12-07T16:55:58.042Z,29.48
2022-12-07T16:59:39.760Z,22.52
2022-12-07T17:03:21.875Z,21.83
2022-12-07T17:07:03.673Z,17.02
2022-12-07T17:10:46.039Z,13.18
2022-12-07T17:14:46.362Z,11.00
2022-12-07T17:18:29.791Z,11.23
2022-12-07T17:22:13.546Z,9.75
2022-12-07T17:25:55.328Z,11.27
2022-12-07T17:29:38.628Z,13.02
2022-12-07T17:33:21.239Z,19.90
2022-12-07T17:37:03.244Z,10.57
2022-12-07T17:40:44.993Z,12.75
2022-12-07T17:44:28.327Z,15.38
2022-12-07T17:48:10.049Z,13.00
2022-12-07T17:52:10.772Z,12.70
2022-12-07T17:56:26.911Z,14.05
2022-12-07T17:59:58.180Z,11.85
2022-12-07T18:03:40.034Z,9.85
2022-12-07T18:07:21.835Z,14.85
2022-12-07T18:11:05.224Z,15.95
2022-12-07T18:14:46.958Z,15.35
2022-12-07T18:18:29.023Z,14.90
2022-12-07T18:22:11.025Z,14.18
2022-12-07T18:25:53.181Z,19.25
2022-12-07T18:29:34.963Z,16.00
2022-12-07T18:33:20.077Z,14.93
2022-12-07T18:37:01.892Z,20.92
2022-12-07T18:40:44.404Z,14.13
2022-12-07T18:44:26.104Z,16.15
2022-12-07T18:48:08.810Z,21.20
2022-12-07T18:51:50.692Z,26.15
2022-12-07T18:55:33.245Z,29.63
2022-12-07T18:59:33.576Z,23.25
2022-12-07T19:03:15.318Z,18.85
2022-12-07T19:06:57.187Z,16.23
2022-12-07T19:10:39.008Z,11.23
2022-12-07T19:14:29.624Z,12.35
2022-12-07T19:18:11.437Z,12.30
2022-12-07T19:21:53.190Z,11.80
2022-12-07T19:25:34.930Z,14.38
2022-12-07T19:29:16.647Z,15.63
2022-12-07T19:32:58.429Z,13.73
2022-12-07T19:36:40.236Z,21.73
2022-12-07T19:40:21.965Z,16.08
2022-12-07T19:44:05.866Z,18.23
2022-12-07T19:47:47.579Z,17.75
2022-12-07T19:51:30.725Z,21.75
2022-12-07T19:55:12.499Z,16.48
2022-12-07T19:58:57.957Z,14.75
2022-12-07T20:02:42.100Z,14.77
2022-12-07T20:06:24.469Z,17.38
2022-12-07T20:10:07.869Z,16.92
2022-12-07T20:13:49.602Z,14.27
2022-12-07T20:17:31.425Z,11.90
2022-12-07T20:21:13.552Z,16.08
2022-12-07T20:24:55.286Z,19.55
2022-12-07T20:28:37.578Z,15.15
2022-12-07T20:32:19.340Z,15.30
2022-12-07T20:36:03.148Z,11.88
2022-12-07T20:39:44.982Z,19.88
2022-12-07T20:43:27.006Z,17.67
2022-12-07T20:47:08.821Z,15.80
2022-12-07T20:50:53.565Z,16.25
2022-12-07T20:54:39.868Z,15.45
2022-12-07T20:58:21.630Z,14.07
2022-12-07T21:02:03.397Z,18.73
2022-12-07T21:05:50.859Z,17.40
2022-12-07T21:09:32.966Z,18.55
2022-12-07T21:13:14.726Z,17.00
2022-12-07T21:16:59.292Z,13.20
2022-12-07T21:20:41.094Z,16.30
2022-12-07T21:24:22.851Z,15.05
2022-12-07T21:28:04.640Z,15.93
2022-12-07T21:31:46.366Z,11.85
2022-12-07T21:35:28.203Z,14.35
2022-12-07T21:39:10.515Z,16.38
2022-12-07T21:42:55.025Z,15.48
2022-12-07T21:46:38.540Z,14.80
2022-12-07T21:50:20.321Z,12.98
2022-12-07T21:54:03.942Z,14.48
2022-12-07T21:57:45.669Z,19.55
2022-12-07T22:01:30.535Z,20.27
2022-12-07T22:05:12.345Z,15.23
2022-12-07T22:08:55.987Z,14.57
2022-12-07T22:12:37.830Z,11.52
2022-12-07T22:16:19.738Z,13.05
2022-12-07T22:20:01.921Z,13.25
2022-12-07T22:23:43.742Z,14.10
2022-12-07T22:27:25.591Z,15.30
2022-12-07T22:31:09.615Z,15.88
2022-12-07T22:34:51.412Z,14.50
2022-12-07T22:38:33.303Z,14.07
2022-12-07T22:42:15.142Z,14.52
2022-12-07T22:45:58.427Z,15.23
2022-12-07T22:49:40.297Z,16.30
2022-12-07T22:53:23.283Z,14.55
2022-12-07T22:57:05.078Z,15.80
2022-12-07T23:00:46.963Z,14.15
2022-12-07T23:04:28.814Z,14.38
2022-12-07T23:08:10.851Z,14.13
2022-12-07T23:12:11.147Z,14.00
2022-12-07T23:15:53.382Z,13.30
2022-12-07T23:19:35.597Z,13.80
2022-12-07T23:23:17.811Z,13.73
2022-12-07T23:26:59.540Z,14.38
2022-12-07T23:30:41.394Z,15.90
2022-12-07T23:34:23.195Z,16.05
2022-12-07T23:38:04.976Z,14.50
2022-12-07T23:41:46.804Z,15.52
2022-12-07T23:45:28.508Z,13.75
2022-12-07T23:49:12.718Z,16.33
2022-12-07T23:52:55.155Z,15.98
2022-12-07T23:56:37.033Z,14.20
